sensor_id;sensor_type;location;lat;lon;timestamp;P1;durP1;ratioP1;P2;durP2;ratioP2
63005;SDS011;53704;52.532;6.426;2023-06-22T02:11:22;62.55;;;44.42;;
63005;SDS011;53704;52.532;6.426;2023-06-22T02:13:52;67.88;;;45.40;;
63005;SDS011;53704;52.532;6.426;2023-06-22T02:16:18;59.22;;;41.60;;
63005;SDS011;53704;52.532;6.426;2023-06-22T02:18:47;56.72;;;41.15;;
63005;SDS011;53704;52.532;6.426;2023-06-22T02:21:17;81.47;;;47.17;;
63005;SDS011;53704;52.532;6.426;2023-06-22T02:23:43;67.50;;;43.88;;
63005;SDS011;53704;52.532;6.426;2023-06-22T02:26:09;65.90;;;44.65;;
63005;SDS011;53704;52.532;6.426;2023-06-22T02:28:34;63.33;;;42.38;;
63005;SDS011;53704;52.532;6.426;2023-06-22T02:31:00;56.45;;;41.80;;
63005;SDS011;53704;52.532;6.426;2023-06-22T02:33:25;50.25;;;37.80;;
63005;SDS011;53704;52.532;6.426;2023-06-22T02:35:52;61.88;;;43.35;;
63005;SDS011;53704;52.532;6.426;2023-06-22T02:38:18;63.70;;;43.95;;
63005;SDS011;53704;52.532;6.426;2023-06-22T02:40:44;70.00;;;46.55;;
63005;SDS011;53704;52.532;6.426;2023-06-22T02:43:10;59.30;;;41.10;;
63005;SDS011;53704;52.532;6.426;2023-06-22T02:45:35;73.82;;;45.17;;
63005;SDS011;53704;52.532;6.426;2023-06-22T02:48:00;64.40;;;42.83;;
63005;SDS011;53704;52.532;6.426;2023-06-22T02:50:26;71.90;;;47.08;;
63005;SDS011;53704;52.532;6.426;2023-06-22T02:52:51;72.35;;;47.38;;
63005;SDS011;53704;52.532;6.426;2023-06-22T02:55:17;71.18;;;46.85;;
63005;SDS011;53704;52.532;6.426;2023-06-22T02:57:42;65.60;;;44.63;;
63005;SDS011;53704;52.532;6.426;2023-06-22T03:00:09;70.05;;;49.78;;
63005;SDS011;53704;52.532;6.426;2023-06-22T03:02:45;74.97;;;50.92;;
63005;SDS011;53704;52.532;6.426;2023-06-22T03:05:12;73.93;;;48.75;;
63005;SDS011;53704;52.532;6.426;2023-06-22T03:07:39;69.80;;;50.35;;
63005;SDS011;53704;52.532;6.426;2023-06-22T03:10:06;77.93;;;53.65;;
63005;SDS011;53704;52.532;6.426;2023-06-22T03:12:34;77.55;;;51.60;;
63005;SDS011;53704;52.532;6.426;2023-06-22T03:14:59;71.85;;;50.22;;
63005;SDS011;53704;52.532;6.426;2023-06-22T03:17:25;82.97;;;54.70;;
63005;SDS011;53704;52.532;6.426;2023-06-22T03:19:50;80.40;;;52.33;;
63005;SDS011;53704;52.532;6.426;2023-06-22T03:22:16;74.50;;;48.92;;
63005;SDS011;53704;52.532;6.426;2023-06-22T03:24:41;72.45;;;51.08;;
63005;SDS011;53704;52.532;6.426;2023-06-22T03:27:06;82.32;;;53.13;;
63005;SDS011;53704;52.532;6.426;2023-06-22T03:29:32;71.07;;;50.55;;
63005;SDS011;53704;52.532;6.426;2023-06-22T03:31:57;70.75;;;49.33;;
63005;SDS011;53704;52.532;6.426;2023-06-22T03:34:23;66.68;;;50.03;;
63005;SDS011;53704;52.532;6.426;2023-06-22T03:36:48;79.85;;;55.85;;
63005;SDS011;53704;52.532;6.426;2023-06-22T03:39:16;90.18;;;59.72;;
63005;SDS011;53704;52.532;6.426;2023-06-22T03:41:42;80.68;;;55.42;;
63005;SDS011;53704;52.532;6.426;2023-06-22T03:44:07;85.10;;;57.00;;
63005;SDS011;53704;52.532;6.426;2023-06-22T03:46:37;70.70;;;50.67;;
63005;SDS011;53704;52.532;6.426;2023-06-22T03:49:03;88.68;;;54.78;;
63005;SDS011;53704;52.532;6.426;2023-06-22T03:51:29;89.07;;;54.33;;
63005;SDS011;53704;52.532;6.426;2023-06-22T03:53:54;88.93;;;57.45;;
63005;SDS011;53704;52.532;6.426;2023-06-22T03:56:20;91.25;;;58.30;;
63005;SDS011;53704;52.532;6.426;2023-06-22T03:58:46;89.15;;;58.90;;
63005;SDS011;53704;52.532;6.426;2023-06-22T04:01:11;85.75;;;59.13;;
63005;SDS011;53704;52.532;6.426;2023-06-22T04:03:37;78.75;;;55.88;;
63005;SDS011;53704;52.532;6.426;2023-06-22T04:06:03;85.55;;;58.25;;
63005;SDS011;53704;52.532;6.426;2023-06-22T04:08:29;84.50;;;56.80;;
63005;SDS011;53704;52.532;6.426;2023-06-22T04:10:54;91.85;;;59.10;;
63005;SDS011;53704;52.532;6.426;2023-06-22T04:13:20;89.43;;;58.13;;
63005;SDS011;53704;52.532;6.426;2023-06-22T04:15:45;87.13;;;58.45;;
63005;SDS011;53704;52.532;6.426;2023-06-22T04:18:11;98.35;;;60.88;;
63005;SDS011;53704;52.532;6.426;2023-06-22T04:20:36;96.53;;;59.38;;
63005;SDS011;53704;52.532;6.426;2023-06-22T04:23:02;94.75;;;61.67;;
63005;SDS011;53704;52.532;6.426;2023-06-22T04:25:27;94.47;;;61.13;;
63005;SDS011;53704;52.532;6.426;2023-06-22T04:27:53;92.10;;;60.65;;
63005;SDS011;53704;52.532;6.426;2023-06-22T04:30:18;85.97;;;58.50;;
63005;SDS011;53704;52.532;6.426;2023-06-22T04:32:44;89.60;;;59.97;;
63005;SDS011;53704;52.532;6.426;2023-06-22T04:35:10;94.22;;;61.20;;
63005;SDS011;53704;52.532;6.426;2023-06-22T04:37:36;91.72;;;58.90;;
63005;SDS011;53704;52.532;6.426;2023-06-22T04:40:02;83.03;;;54.28;;
63005;SDS011;53704;52.532;6.426;2023-06-22T04:42:30;91.00;;;59.40;;
63005;SDS011;53704;52.532;6.426;2023-06-22T04:44:57;85.88;;;56.97;;
63005;SDS011;53704;52.532;6.426;2023-06-22T04:47:22;87.50;;;59.03;;
63005;SDS011;53704;52.532;6.426;2023-06-22T04:49:47;82.22;;;55.40;;
63005;SDS011;53704;52.532;6.426;2023-06-22T04:52:13;94.07;;;59.72;;
63005;SDS011;53704;52.532;6.426;2023-06-22T04:54:45;88.38;;;58.38;;
63005;SDS011;53704;52.532;6.426;2023-06-22T04:57:12;87.38;;;58.63;;
63005;SDS011;53704;52.532;6.426;2023-06-22T04:59:38;86.15;;;58.35;;
63005;SDS011;53704;52.532;6.426;2023-06-22T05:02:06;85.25;;;55.88;;
63005;SDS011;53704;52.532;6.426;2023-06-22T05:04:32;82.97;;;56.72;;
63005;SDS011;53704;52.532;6.426;2023-06-22T05:06:58;84.18;;;54.63;;
63005;SDS011;53704;52.532;6.426;2023-06-22T05:09:29;89.70;;;58.40;;
63005;SDS011;53704;52.532;6.426;2023-06-22T05:11:55;86.13;;;56.63;;
63005;SDS011;53704;52.532;6.426;2023-06-22T05:14:24;87.72;;;59.63;;
63005;SDS011;53704;52.532;6.426;2023-06-22T05:16:50;90.70;;;58.83;;
63005;SDS011;53704;52.532;6.426;2023-06-22T05:19:17;84.07;;;55.00;;
63005;SDS011;53704;52.532;6.426;2023-06-22T05:21:42;81.05;;;56.38;;
63005;SDS011;53704;52.532;6.426;2023-06-22T05:24:08;80.25;;;55.92;;
63005;SDS011;53704;52.532;6.426;2023-06-22T05:26:33;80.60;;;53.95;;
63005;SDS011;53704;52.532;6.426;2023-06-22T05:29:00;78.20;;;53.75;;
63005;SDS011;53704;52.532;6.426;2023-06-22T05:31:27;77.03;;;50.70;;
63005;SDS011;53704;52.532;6.426;2023-06-22T05:33:53;75.07;;;52.97;;
63005;SDS011;53704;52.532;6.426;2023-06-22T05:36:20;73.07;;;48.88;;
63005;SDS011;53704;52.532;6.426;2023-06-22T05:38:46;69.90;;;48.25;;
63005;SDS011;53704;52.532;6.426;2023-06-22T05:41:12;66.10;;;47.58;;
63005;SDS011;53704;52.532;6.426;2023-06-22T05:43:38;69.85;;;46.92;;
63005;SDS011;53704;52.532;6.426;2023-06-22T05:46:04;62.83;;;45.83;;
63005;SDS011;53704;52.532;6.426;2023-06-22T05:48:30;69.15;;;47.00;;
63005;SDS011;53704;52.532;6.426;2023-06-22T05:50:56;64.65;;;43.72;;
63005;SDS011;53704;52.532;6.426;2023-06-22T05:53:21;61.92;;;42.88;;
63005;SDS011;53704;52.532;6.426;2023-06-22T05:55:47;59.58;;;43.80;;
63005;SDS011;53704;52.532;6.426;2023-06-22T05:58:13;54.17;;;39.08;;
63005;SDS011;53704;52.532;6.426;2023-06-22T06:00:38;58.42;;;40.60;;
63005;SDS011;53704;52.532;6.426;2023-06-22T06:03:05;58.70;;;42.15;;
63005;SDS011;53704;52.532;6.426;2023-06-22T06:05:32;50.97;;;40.22;;
63005;SDS011;53704;52.532;6.426;2023-06-22T06:07:58;58.53;;;39.15;;
63005;SDS011;53704;52.532;6.426;2023-06-22T06:10:25;48.80;;;35.47;;
63005;SDS011;53704;52.532;6.426;2023-06-22T06:12:51;55.50;;;35.90;;
63005;SDS011;53704;52.532;6.426;2023-06-22T06:15:16;59.38;;;36.13;;
63005;SDS011;53704;52.532;6.426;2023-06-22T06:17:46;51.13;;;34.92;;
63005;SDS011;53704;52.532;6.426;2023-06-22T06:20:15;43.47;;;33.03;;
63005;SDS011;53704;52.532;6.426;2023-06-22T06:22:43;46.13;;;33.10;;
63005;SDS011;53704;52.532;6.426;2023-06-22T06:25:08;43.17;;;30.77;;
63005;SDS011;53704;52.532;6.426;2023-06-22T06:27:34;40.38;;;30.48;;
63005;SDS011;53704;52.532;6.426;2023-06-22T06:30:00;42.95;;;29.73;;
63005;SDS011;53704;52.532;6.426;2023-06-22T06:32:27;37.90;;;30.85;;
63005;SDS011;53704;52.532;6.426;2023-06-22T06:34:52;42.08;;;29.25;;
63005;SDS011;53704;52.532;6.426;2023-06-22T06:37:18;39.90;;;28.88;;
63005;SDS011;53704;52.532;6.426;2023-06-22T06:39:44;34.00;;;27.58;;
63005;SDS011;53704;52.532;6.426;2023-06-22T06:42:09;35.63;;;26.80;;
63005;SDS011;53704;52.532;6.426;2023-06-22T06:44:36;42.75;;;26.55;;
63005;SDS011;53704;52.532;6.426;2023-06-22T06:47:03;42.38;;;27.27;;
63005;SDS011;53704;52.532;6.426;2023-06-22T06:49:29;32.13;;;26.23;;
63005;SDS011;53704;52.532;6.426;2023-06-22T06:51:55;36.25;;;26.75;;
63005;SDS011;53704;52.532;6.426;2023-06-22T06:54:21;37.05;;;24.95;;
63005;SDS011;53704;52.532;6.426;2023-06-22T06:56:47;36.33;;;26.48;;
63005;SDS011;53704;52.532;6.426;2023-06-22T06:59:13;30.58;;;25.00;;
63005;SDS011;53704;52.532;6.426;2023-06-22T07:01:40;30.92;;;25.35;;
63005;SDS011;53704;52.532;6.426;2023-06-22T07:04:06;36.75;;;24.92;;
63005;SDS011;53704;52.532;6.426;2023-06-22T07:06:31;35.20;;;24.98;;
63005;SDS011;53704;52.532;6.426;2023-06-22T07:08:58;30.02;;;23.45;;
63005;SDS011;53704;52.532;6.426;2023-06-22T07:11:24;34.58;;;23.48;;
63005;SDS011;53704;52.532;6.426;2023-06-22T07:13:50;34.55;;;23.90;;
63005;SDS011;53704;52.532;6.426;2023-06-22T07:16:16;28.63;;;21.65;;
63005;SDS011;53704;52.532;6.426;2023-06-22T07:18:41;29.75;;;23.08;;
63005;SDS011;53704;52.532;6.426;2023-06-22T07:21:08;37.30;;;23.67;;
63005;SDS011;53704;52.532;6.426;2023-06-22T07:23:34;29.38;;;21.77;;
63005;SDS011;53704;52.532;6.426;2023-06-22T07:26:00;41.13;;;22.58;;
63005;SDS011;53704;52.532;6.426;2023-06-22T07:28:31;22.52;;;20.13;;
63005;SDS011;53704;52.532;6.426;2023-06-22T07:31:02;27.25;;;19.95;;
63005;SDS011;53704;52.532;6.426;2023-06-22T07:33:29;26.05;;;18.45;;
63005;SDS011;53704;52.532;6.426;2023-06-22T07:35:54;22.90;;;16.52;;
63005;SDS011;53704;52.532;6.426;2023-06-22T07:38:20;26.45;;;15.98;;
63005;SDS011;53704;52.532;6.426;2023-06-22T07:40:45;19.02;;;15.32;;
63005;SDS011;53704;52.532;6.426;2023-06-22T07:43:10;21.63;;;15.77;;
63005;SDS011;53704;52.532;6.426;2023-06-22T07:45:37;20.38;;;15.18;;
63005;SDS011;53704;52.532;6.426;2023-06-22T07:48:05;17.38;;;14.68;;
63005;SDS011;53704;52.532;6.426;2023-06-22T07:50:30;23.58;;;14.10;;
63005;SDS011;53704;52.532;6.426;2023-06-22T07:52:56;35.15;;;14.27;;
63005;SDS011;53704;52.532;6.426;2023-06-22T07:55:21;25.73;;;14.52;;
63005;SDS011;53704;52.532;6.426;2023-06-22T07:57:48;14.80;;;13.10;;
63005;SDS011;53704;52.532;6.426;2023-06-22T08:00:14;16.05;;;12.00;;
63005;SDS011;53704;52.532;6.426;2023-06-22T08:02:41;17.25;;;13.55;;
63005;SDS011;53704;52.532;6.426;2023-06-22T08:05:08;15.30;;;13.10;;
63005;SDS011;53704;52.532;6.426;2023-06-22T08:07:35;14.85;;;12.57;;
63005;SDS011;53704;52.532;6.426;2023-06-22T08:10:03;17.15;;;12.52;;
63005;SDS011;53704;52.532;6.426;2023-06-22T08:12:29;23.90;;;13.95;;
63005;SDS011;53704;52.532;6.426;2023-06-22T08:14:54;21.02;;;12.27;;
63005;SDS011;53704;52.532;6.426;2023-06-22T08:17:22;17.33;;;12.50;;
63005;SDS011;53704;52.532;6.426;2023-06-22T08:19:48;26.88;;;11.93;;
63005;SDS011;53704;52.532;6.426;2023-06-22T08:22:15;14.32;;;11.75;;
63005;SDS011;53704;52.532;6.426;2023-06-22T08:24:42;15.35;;;12.90;;
63005;SDS011;53704;52.532;6.426;2023-06-22T08:27:07;17.30;;;10.50;;
63005;SDS011;53704;52.532;6.426;2023-06-22T08:29:38;13.45;;;11.93;;
63005;SDS011;53704;52.532;6.426;2023-06-22T08:32:04;24.92;;;11.55;;
63005;SDS011;53704;52.532;6.426;2023-06-22T08:34:30;13.32;;;11.18;;
63005;SDS011;53704;52.532;6.426;2023-06-22T08:36:55;21.48;;;11.98;;
63005;SDS011;53704;52.532;6.426;2023-06-22T08:39:21;21.35;;;11.15;;
63005;SDS011;53704;52.532;6.426;2023-06-22T08:41:47;12.32;;;10.98;;
63005;SDS011;53704;52.532;6.426;2023-06-22T08:44:13;12.88;;;11.73;;
63005;SDS011;53704;52.532;6.426;2023-06-22T08:46:38;12.95;;;11.70;;
63005;SDS011;53704;52.532;6.426;2023-06-22T08:49:06;13.65;;;11.32;;
63005;SDS011;53704;52.532;6.426;2023-06-22T08:51:32;12.35;;;11.13;;
63005;SDS011;53704;52.532;6.426;2023-06-22T08:53:57;12.48;;;9.40;;
63005;SDS011;53704;52.532;6.426;2023-06-22T08:56:23;11.10;;;10.02;;
63005;SDS011;53704;52.532;6.426;2023-06-22T08:58:48;18.88;;;9.05;;
63005;SDS011;53704;52.532;6.426;2023-06-22T09:01:14;10.07;;;9.07;;
63005;SDS011;53704;52.532;6.426;2023-06-22T09:03:41;16.85;;;9.50;;
63005;SDS011;53704;52.532;6.426;2023-06-22T09:06:07;14.27;;;11.80;;
63005;SDS011;53704;52.532;6.426;2023-06-22T09:08:35;16.05;;;10.60;;
63005;SDS011;53704;52.532;6.426;2023-06-22T09:11:01;12.82;;;10.93;;
63005;SDS011;53704;52.532;6.426;2023-06-22T09:13:27;11.18;;;9.95;;
63005;SDS011;53704;52.532;6.426;2023-06-22T09:15:55;11.77;;;10.60;;
63005;SDS011;53704;52.532;6.426;2023-06-22T09:18:21;12.90;;;11.73;;
63005;SDS011;53704;52.532;6.426;2023-06-22T09:20:46;14.27;;;9.43;;
63005;SDS011;53704;52.532;6.426;2023-06-22T09:23:12;15.93;;;10.82;;
63005;SDS011;53704;52.532;6.426;2023-06-22T09:25:37;12.10;;;10.82;;
63005;SDS011;53704;52.532;6.426;2023-06-22T09:28:07;18.65;;;11.73;;
63005;SDS011;53704;52.532;6.426;2023-06-22T09:30:32;11.48;;;10.00;;
63005;SDS011;53704;52.532;6.426;2023-06-22T09:32:58;10.95;;;9.90;;
63005;SDS011;53704;52.532;6.426;2023-06-22T09:35:23;12.13;;;10.13;;
63005;SDS011;53704;52.532;6.426;2023-06-22T09:37:48;14.98;;;10.40;;
63005;SDS011;53704;52.532;6.426;2023-06-22T09:40:14;15.00;;;10.32;;
63005;SDS011;53704;52.532;6.426;2023-06-22T09:42:41;11.60;;;10.00;;
63005;SDS011;53704;52.532;6.426;2023-06-22T09:45:07;13.63;;;11.65;;
63005;SDS011;53704;52.532;6.426;2023-06-22T09:47:33;13.52;;;11.18;;
63005;SDS011;53704;52.532;6.426;2023-06-22T09:49:58;16.17;;;9.75;;
63005;SDS011;53704;52.532;6.426;2023-06-22T09:52:24;11.80;;;10.30;;
63005;SDS011;53704;52.532;6.426;2023-06-22T09:54:50;11.73;;;10.70;;
63005;SDS011;53704;52.532;6.426;2023-06-22T09:57:16;11.13;;;9.85;;
63005;SDS011;53704;52.532;6.426;2023-06-22T09:59:41;16.95;;;11.18;;
63005;SDS011;53704;52.532;6.426;2023-06-22T10:02:06;13.70;;;9.23;;
63005;SDS011;53704;52.532;6.426;2023-06-22T10:04:33;12.38;;;10.77;;
63005;SDS011;53704;52.532;6.426;2023-06-22T10:07:00;19.73;;;11.45;;
63005;SDS011;53704;52.532;6.426;2023-06-22T10:09:26;15.40;;;12.02;;
63005;SDS011;53704;52.532;6.426;2023-06-22T10:11:51;11.65;;;9.85;;
63005;SDS011;53704;52.532;6.426;2023-06-22T10:14:17;11.57;;;10.57;;
63005;SDS011;53704;52.532;6.426;2023-06-22T10:16:44;14.90;;;8.55;;
63005;SDS011;53704;52.532;6.426;2023-06-22T10:19:10;13.32;;;11.15;;
63005;SDS011;53704;52.532;6.426;2023-06-22T10:21:35;9.95;;;8.15;;
63005;SDS011;53704;52.532;6.426;2023-06-22T10:24:01;15.57;;;7.93;;
63005;SDS011;53704;52.532;6.426;2023-06-22T10:26:33;9.63;;;8.48;;
63005;SDS011;53704;52.532;6.426;2023-06-22T10:28:59;12.98;;;10.23;;
63005;SDS011;53704;52.532;6.426;2023-06-22T10:31:26;15.20;;;7.63;;
63005;SDS011;53704;52.532;6.426;2023-06-22T10:33:53;10.65;;;8.65;;
63005;SDS011;53704;52.532;6.426;2023-06-22T10:36:19;10.25;;;9.25;;
63005;SDS011;53704;52.532;6.426;2023-06-22T10:38:45;9.15;;;8.27;;
63005;SDS011;53704;52.532;6.426;2023-06-22T10:41:12;10.02;;;9.20;;
63005;SDS011;53704;52.532;6.426;2023-06-22T10:43:37;8.15;;;7.50;;
63005;SDS011;53704;52.532;6.426;2023-06-22T10:46:03;9.45;;;7.97;;
63005;SDS011;53704;52.532;6.426;2023-06-22T10:48:28;11.95;;;8.68;;
63005;SDS011;53704;52.532;6.426;2023-06-22T10:50:53;9.98;;;8.95;;
63005;SDS011;53704;52.532;6.426;2023-06-22T10:53:19;10.48;;;9.35;;
63005;SDS011;53704;52.532;6.426;2023-06-22T10:55:45;21.33;;;8.30;;
63005;SDS011;53704;52.532;6.426;2023-06-22T10:58:10;9.38;;;8.57;;
63005;SDS011;53704;52.532;6.426;2023-06-22T11:00:36;12.52;;;7.63;;
63005;SDS011;53704;52.532;6.426;2023-06-22T11:03:02;9.10;;;8.30;;
63005;SDS011;53704;52.532;6.426;2023-06-22T11:05:27;8.05;;;7.15;;
63005;SDS011;53704;52.532;6.426;2023-06-22T11:07:53;8.35;;;7.55;;
63005;SDS011;53704;52.532;6.426;2023-06-22T11:10:18;16.02;;;8.95;;
63005;SDS011;53704;52.532;6.426;2023-06-22T11:12:43;10.77;;;9.40;;
63005;SDS011;53704;52.532;6.426;2023-06-22T11:15:09;11.63;;;7.63;;
63005;SDS011;53704;52.532;6.426;2023-06-22T11:17:35;7.68;;;6.85;;
63005;SDS011;53704;52.532;6.426;2023-06-22T11:20:00;9.02;;;6.63;;
63005;SDS011;53704;52.532;6.426;2023-06-22T11:22:26;9.90;;;7.10;;
63005;SDS011;53704;52.532;6.426;2023-06-22T11:24:52;12.63;;;6.60;;
63005;SDS011;53704;52.532;6.426;2023-06-22T11:27:17;14.52;;;7.15;;
63005;SDS011;53704;52.532;6.426;2023-06-22T11:29:43;7.03;;;5.50;;
63005;SDS011;53704;52.532;6.426;2023-06-22T11:32:08;9.02;;;6.53;;
63005;SDS011;53704;52.532;6.426;2023-06-22T11:34:37;9.48;;;6.45;;
63005;SDS011;53704;52.532;6.426;2023-06-22T11:37:02;10.35;;;7.50;;
63005;SDS011;53704;52.532;6.426;2023-06-22T11:39:28;12.23;;;7.47;;
63005;SDS011;53704;52.532;6.426;2023-06-22T11:41:53;7.85;;;6.60;;
63005;SDS011;53704;52.532;6.426;2023-06-22T11:44:19;10.57;;;5.20;;
63005;SDS011;53704;52.532;6.426;2023-06-22T11:46:44;9.05;;;6.75;;
63005;SDS011;53704;52.532;6.426;2023-06-22T11:49:10;6.60;;;5.78;;
63005;SDS011;53704;52.532;6.426;2023-06-22T11:51:35;6.85;;;6.15;;
63005;SDS011;53704;52.532;6.426;2023-06-22T11:54:01;6.53;;;5.45;;
63005;SDS011;53704;52.532;6.426;2023-06-22T11:56:28;6.93;;;6.13;;
63005;SDS011;53704;52.532;6.426;2023-06-22T11:58:53;6.20;;;5.65;;
63005;SDS011;53704;52.532;6.426;2023-06-22T12:01:19;9.30;;;8.30;;
63005;SDS011;53704;52.532;6.426;2023-06-22T12:03:44;7.57;;;6.88;;
63005;SDS011;53704;52.532;6.426;2023-06-22T12:06:10;7.32;;;6.70;;
63005;SDS011;53704;52.532;6.426;2023-06-22T12:08:36;10.68;;;7.00;;
63005;SDS011;53704;52.532;6.426;2023-06-22T12:11:01;14.27;;;7.18;;
63005;SDS011;53704;52.532;6.426;2023-06-22T12:13:26;8.68;;;5.72;;
63005;SDS011;53704;52.532;6.426;2023-06-22T12:15:52;8.60;;;5.43;;
63005;SDS011;53704;52.532;6.426;2023-06-22T12:18:18;9.32;;;6.05;;
63005;SDS011;53704;52.532;6.426;2023-06-22T12:20:45;10.55;;;5.72;;
63005;SDS011;53704;52.532;6.426;2023-06-22T12:23:11;7.05;;;5.72;;
63005;SDS011;53704;52.532;6.426;2023-06-22T12:25:37;7.00;;;5.65;;
63005;SDS011;53704;52.532;6.426;2023-06-22T12:28:02;6.32;;;5.70;;
63005;SDS011;53704;52.532;6.426;2023-06-22T12:30:30;6.15;;;5.03;;
63005;SDS011;53704;52.532;6.426;2023-06-22T12:32:55;7.57;;;6.30;;
63005;SDS011;53704;52.532;6.426;2023-06-22T12:35:21;5.32;;;4.93;;
63005;SDS011;53704;52.532;6.426;2023-06-22T12:37:46;5.47;;;5.13;;
63005;SDS011;53704;52.532;6.426;2023-06-22T12:40:12;16.90;;;6.05;;
63005;SDS011;53704;52.532;6.426;2023-06-22T12:42:37;6.47;;;5.97;;
63005;SDS011;53704;52.532;6.426;2023-06-22T12:45:03;6.30;;;5.80;;
63005;SDS011;53704;52.532;6.426;2023-06-22T12:47:30;10.18;;;6.70;;
63005;SDS011;53704;52.532;6.426;2023-06-22T12:49:55;6.57;;;6.03;;
63005;SDS011;53704;52.532;6.426;2023-06-22T12:52:21;10.45;;;6.43;;
63005;SDS011;53704;52.532;6.426;2023-06-22T12:54:46;11.93;;;5.70;;
63005;SDS011;53704;52.532;6.426;2023-06-22T12:57:12;7.68;;;6.30;;
63005;SDS011;53704;52.532;6.426;2023-06-22T12:59:37;13.90;;;6.70;;
63005;SDS011;53704;52.532;6.426;2023-06-22T13:02:03;13.43;;;6.57;;
63005;SDS011;53704;52.532;6.426;2023-06-22T13:04:28;7.38;;;6.70;;
63005;SDS011;53704;52.532;6.426;2023-06-22T13:06:54;13.77;;;5.90;;
63005;SDS011;53704;52.532;6.426;2023-06-22T13:09:19;6.03;;;5.57;;
63005;SDS011;53704;52.532;6.426;2023-06-22T13:11:45;8.75;;;6.30;;
63005;SDS011;53704;52.532;6.426;2023-06-22T13:14:10;6.90;;;6.30;;
63005;SDS011;53704;52.532;6.426;2023-06-22T13:16:36;8.25;;;7.05;;
63005;SDS011;53704;52.532;6.426;2023-06-22T13:19:02;6.38;;;5.80;;
63005;SDS011;53704;52.532;6.426;2023-06-22T13:21:27;7.53;;;6.05;;
63005;SDS011;53704;52.532;6.426;2023-06-22T13:23:53;9.43;;;6.72;;
63005;SDS011;53704;52.532;6.426;2023-06-22T13:26:18;20.73;;;6.53;;
63005;SDS011;53704;52.532;6.426;2023-06-22T13:28:44;9.32;;;6.97;;
63005;SDS011;53704;52.532;6.426;2023-06-22T13:31:09;6.10;;;5.53;;
63005;SDS011;53704;52.532;6.426;2023-06-22T13:33:35;6.78;;;6.18;;
63005;SDS011;53704;52.532;6.426;2023-06-22T13:36:02;7.55;;;6.30;;
63005;SDS011;53704;52.532;6.426;2023-06-22T13:38:28;10.90;;;6.28;;
63005;SDS011;53704;52.532;6.426;2023-06-22T13:40:57;7.13;;;6.45;;
63005;SDS011;53704;52.532;6.426;2023-06-22T13:43:26;6.65;;;6.10;;
63005;SDS011;53704;52.532;6.426;2023-06-22T13:45:52;8.32;;;6.63;;
63005;SDS011;53704;52.532;6.426;2023-06-22T13:48:17;10.85;;;6.20;;
63005;SDS011;53704;52.532;6.426;2023-06-22T13:50:43;13.55;;;6.40;;
63005;SDS011;53704;52.532;6.426;2023-06-22T13:53:09;7.75;;;6.53;;
63005;SDS011;53704;52.532;6.426;2023-06-22T13:55:34;13.13;;;6.70;;
63005;SDS011;53704;52.532;6.426;2023-06-22T13:58:00;9.80;;;8.30;;
63005;SDS011;53704;52.532;6.426;2023-06-22T14:00:25;15.52;;;7.85;;
63005;SDS011;53704;52.532;6.426;2023-06-22T14:02:52;16.10;;;9.18;;
63005;SDS011;53704;52.532;6.426;2023-06-22T14:05:18;9.30;;;8.38;;
63005;SDS011;53704;52.532;6.426;2023-06-22T14:07:45;10.65;;;8.45;;
63005;SDS011;53704;52.532;6.426;2023-06-22T14:10:10;20.05;;;9.85;;
63005;SDS011;53704;52.532;6.426;2023-06-22T14:12:36;11.23;;;9.23;;
63005;SDS011;53704;52.532;6.426;2023-06-22T14:15:02;9.77;;;8.93;;
63005;SDS011;53704;52.532;6.426;2023-06-22T14:17:28;9.68;;;8.75;;
63005;SDS011;53704;52.532;6.426;2023-06-22T14:19:54;12.65;;;9.65;;
63005;SDS011;53704;52.532;6.426;2023-06-22T14:22:20;9.77;;;8.75;;
63005;SDS011;53704;52.532;6.426;2023-06-22T14:24:47;10.98;;;9.35;;
63005;SDS011;53704;52.532;6.426;2023-06-22T14:27:12;9.90;;;9.00;;
63005;SDS011;53704;52.532;6.426;2023-06-22T14:29:38;11.40;;;9.15;;
63005;SDS011;53704;52.532;6.426;2023-06-22T14:32:03;11.48;;;10.32;;
63005;SDS011;53704;52.532;6.426;2023-06-22T14:34:31;12.90;;;10.10;;
63005;SDS011;53704;52.532;6.426;2023-06-22T14:36:57;12.25;;;10.65;;
63005;SDS011;53704;52.532;6.426;2023-06-22T14:39:22;17.75;;;11.60;;
63005;SDS011;53704;52.532;6.426;2023-06-22T14:41:48;12.15;;;10.90;;
63005;SDS011;53704;52.532;6.426;2023-06-22T14:44:13;15.55;;;10.52;;
63005;SDS011;53704;52.532;6.426;2023-06-22T14:46:40;14.52;;;11.85;;
63005;SDS011;53704;52.532;6.426;2023-06-22T14:52:01;13.63;;;12.02;;
63005;SDS011;53704;52.532;6.426;2023-06-22T14:54:27;15.38;;;11.27;;
63005;SDS011;53704;52.532;6.426;2023-06-22T14:56:52;17.55;;;12.75;;
63005;SDS011;53704;52.532;6.426;2023-06-22T14:59:17;14.07;;;12.63;;
63005;SDS011;53704;52.532;6.426;2023-06-22T15:01:43;12.60;;;11.35;;
63005;SDS011;53704;52.532;6.426;2023-06-22T15:04:08;13.70;;;11.05;;
63005;SDS011;53704;52.532;6.426;2023-06-22T15:06:34;15.82;;;11.98;;
63005;SDS011;53704;52.532;6.426;2023-06-22T15:08:59;13.85;;;11.07;;
63005;SDS011;53704;52.532;6.426;2023-06-22T15:11:25;14.15;;;12.68;;
63005;SDS011;53704;52.532;6.426;2023-06-22T15:13:50;20.40;;;12.32;;
63005;SDS011;53704;52.532;6.426;2023-06-22T15:16:15;18.45;;;12.88;;
63005;SDS011;53704;52.532;6.426;2023-06-22T15:18:41;16.67;;;13.85;;
63005;SDS011;53704;52.532;6.426;2023-06-22T15:21:06;15.65;;;13.77;;
63005;SDS011;53704;52.532;6.426;2023-06-22T15:23:32;15.50;;;14.07;;
63005;SDS011;53704;52.532;6.426;2023-06-22T15:26:00;16.98;;;13.70;;
63005;SDS011;53704;52.532;6.426;2023-06-22T15:28:27;15.88;;;14.02;;
63005;SDS011;53704;52.532;6.426;2023-06-22T15:30:54;15.13;;;13.82;;
63005;SDS011;53704;52.532;6.426;2023-06-22T15:33:19;16.75;;;14.00;;
63005;SDS011;53704;52.532;6.426;2023-06-22T15:35:45;14.50;;;13.23;;
63005;SDS011;53704;52.532;6.426;2023-06-22T15:38:10;17.73;;;13.80;;
63005;SDS011;53704;52.532;6.426;2023-06-22T15:40:36;15.65;;;14.05;;
63005;SDS011;53704;52.532;6.426;2023-06-22T15:43:01;23.50;;;14.32;;
63005;SDS011;53704;52.532;6.426;2023-06-22T15:45:28;26.05;;;15.68;;
63005;SDS011;53704;52.532;6.426;2023-06-22T15:47:54;17.27;;;13.43;;
63005;SDS011;53704;52.532;6.426;2023-06-22T15:50:19;17.27;;;13.93;;
63005;SDS011;53704;52.532;6.426;2023-06-22T15:52:44;21.42;;;14.75;;
63005;SDS011;53704;52.532;6.426;2023-06-22T15:55:13;15.93;;;14.20;;
63005;SDS011;53704;52.532;6.426;2023-06-22T15:57:39;18.13;;;13.48;;
63005;SDS011;53704;52.532;6.426;2023-06-22T16:00:05;20.65;;;14.98;;
63005;SDS011;53704;52.532;6.426;2023-06-22T16:02:32;17.90;;;15.52;;
63005;SDS011;53704;52.532;6.426;2023-06-22T16:04:58;16.15;;;14.55;;
63005;SDS011;53704;52.532;6.426;2023-06-22T16:07:24;15.23;;;13.73;;
63005;SDS011;53704;52.532;6.426;2023-06-22T16:09:49;15.55;;;13.93;;
63005;SDS011;53704;52.532;6.426;2023-06-22T16:12:15;17.40;;;15.65;;
63005;SDS011;53704;52.532;6.426;2023-06-22T16:14:40;22.63;;;16.02;;
63005;SDS011;53704;52.532;6.426;2023-06-22T16:17:07;16.95;;;15.05;;
63005;SDS011;53704;52.532;6.426;2023-06-22T16:19:32;21.33;;;14.95;;
63005;SDS011;53704;52.532;6.426;2023-06-22T16:21:57;20.42;;;14.93;;
63005;SDS011;53704;52.532;6.426;2023-06-22T16:24:23;27.77;;;14.32;;
63005;SDS011;53704;52.532;6.426;2023-06-22T16:26:48;21.30;;;15.23;;
63005;SDS011;53704;52.532;6.426;2023-06-22T16:29:14;22.67;;;15.15;;
63005;SDS011;53704;52.532;6.426;2023-06-22T16:31:39;20.55;;;14.90;;
63005;SDS011;53704;52.532;6.426;2023-06-22T16:34:05;27.00;;;14.63;;